Time;durP1;ratioP1;P1;durP2;ratioP2;P2;SDS_P1;SDS_P2;PMS_P1;PMS_P2;Temp;Humidity;BMP_temperature;BMP_pressure;BME280_temperature;BME280_humidity;BME280_pressure;Samples;Min_cycle;Max_cycle;Signal;HPM_P1;HPM_P2
2021/06/22 00:01:29;;;;;;;14.95;11.40;;;;;;;21.91;76.55;100888.88;6313132;28;20184;-76
2021/06/22 00:04:34;;;;;;;18.05;10.52;;;;;;;21.95;75.80;100884.44;6312964;28;20184;-75
2021/06/22 00:07:38;;;;;;;16.85;10.85;;;;;;;21.96;75.07;100897.19;6311893;28;20494;-76
2021/06/22 00:10:43;;;;;;;16.98;10.90;;;;;;;21.97;75.51;100884.97;6312782;28;20246;-76
2021/06/22 00:13:47;;;;;;;13.55;11.10;;;;;;;22.00;75.34;100892.72;6311578;28;20544;-75
2021/06/22 00:16:51;;;;;;;12.05;10.27;;;;;;;22.05;74.78;100894.63;6312314;28;20428;-76
2021/06/22 00:19:57;;;;;;;16.20;10.50;;;;;;;21.96;75.34;100886.06;6311489;28;20451;-75
2021/06/22 00:23:02;;;;;;;11.00;10.10;;;;;;;21.91;75.22;100877.78;6312893;28;20188;-75
2021/06/22 00:26:06;;;;;;;12.38;10.40;;;;;;;21.83;76.13;100875.59;6312499;28;20249;-76
2021/06/22 00:29:12;;;;;;;13.68;10.38;;;;;;;21.86;75.88;100869.50;6312424;28;20191;-77
2021/06/22 00:32:16;;;;;;;16.40;10.30;;;;;;;21.73;76.85;100867.34;6312363;28;20250;-75
2021/06/22 00:35:22;;;;;;;17.00;10.30;;;;;;;21.80;76.48;100865.09;6294197;28;20230;-75
2021/06/22 00:38:27;;;;;;;18.45;10.38;;;;;;;21.74;76.69;100855.13;6311010;28;20206;-75
2021/06/22 00:41:32;;;;;;;12.18;9.80;;;;;;;21.80;76.03;100853.97;6293347;28;20491;-75
2021/06/22 00:44:44;;;;;;;14.23;10.20;;;;;;;21.63;77.29;100853.53;6310944;28;20271;-76
2021/06/22 00:47:49;;;;;;;13.10;9.63;;;;;;;21.69;76.99;100857.94;6293951;28;20203;-76
2021/06/22 00:50:55;;;;;;;14.70;8.82;;;;;;;21.68;76.33;100872.94;6312197;28;20187;-75
2021/06/22 00:54:00;;;;;;;9.40;8.45;;;;;;;21.72;75.92;100862.94;6310866;28;20242;-76
2021/06/22 00:57:10;;;;;;;11.85;9.10;;;;;;;21.60;76.98;100862.44;6293828;28;20490;-76
2021/06/22 01:00:15;;;;;;;11.25;9.35;;;;;;;21.63;76.86;100848.81;6312497;28;20191;-76
2021/06/22 01:03:22;;;;;;;9.52;8.50;;;;;;;21.65;76.38;100840.19;6293270;28;20203;-76
2021/06/22 01:06:30;;;;;;;19.90;9.77;;;;;;;21.65;76.47;100845.75;6293005;28;20230;-76
2021/06/22 01:09:48;;;;;;;10.63;9.43;;;;;;;21.63;77.03;100836.88;6294039;28;20238;-76
2021/06/22 01:12:54;;;;;;;9.90;8.93;;;;;;;21.56;77.11;100841.94;6293453;28;20273;-75
2021/06/22 01:15:59;;;;;;;11.90;8.82;;;;;;;21.51;77.46;100847.53;6311817;28;20223;-76
2021/06/22 01:19:06;;;;;;;9.57;8.15;;;;;;;21.58;76.04;100845.25;6311774;28;20221;-75
2021/06/22 01:22:34;;;;;;;13.27;7.90;;;;;;;21.53;76.15;100853.63;6293827;28;20412;-76
2021/06/22 01:25:39;;;;;;;8.85;8.07;;;;;;;21.55;76.09;100856.94;6294034;28;20237;-75
2021/06/22 01:28:44;;;;;;;9.25;7.80;;;;;;;21.61;75.52;100839.13;6311640;28;20241;-75
2021/06/22 01:31:54;;;;;;;8.48;7.68;;;;;;;21.57;76.35;100838.06;6311962;28;20215;-76
2021/06/22 01:35:00;;;;;;;10.40;7.57;;;;;;;21.56;76.05;100839.16;6293584;28;20281;-75
2021/06/22 01:38:08;;;;;;;9.88;8.38;;;;;;;21.57;76.58;100838.06;6293654;28;20203;-75
2021/06/22 01:41:17;;;;;;;8.70;7.57;;;;;;;21.60;75.81;100831.91;6310495;28;20183;-75
2021/06/22 01:44:21;;;;;;;10.68;7.82;;;;;;;21.61;75.83;100830.81;6310448;28;20223;-76
2021/06/22 01:47:26;;;;;;;9.52;8.38;;;;;;;21.53;76.64;100820.31;6293780;28;20235;-75
2021/06/22 01:50:31;;;;;;;9.35;8.35;;;;;;;21.54;76.47;100838.63;6292396;28;20228;-76
2021/06/22 01:53:36;;;;;;;8.93;8.30;;;;;;;21.52;76.82;100840.88;6310587;28;20219;-75
2021/06/22 01:56:50;;;;;;;11.68;8.25;;;;;;;21.39;77.76;100830.44;6311893;28;20184;-76
2021/06/22 01:59:58;;;;;;;11.38;7.97;;;;;;;21.45;77.13;100824.53;6310323;28;20461;-76
2021/06/22 02:03:26;;;;;;;9.20;8.40;;;;;;;21.51;76.94;100819.78;6303734;28;20204;-75
2021/06/22 02:06:30;;;;;;;9.07;8.18;;;;;;;21.55;76.77;100815.28;6296160;28;20283;-75
2021/06/22 02:10:06;;;;;;;9.60;8.60;;;;;;;21.42;77.45;100808.47;6314926;28;20497;-75
2021/06/22 02:13:31;;;;;;;14.55;8.38;;;;;;;21.46;77.05;100809.56;6283958;28;20471;-76
2021/06/22 02:16:45;;;;;;;17.10;8.00;;;;;;;21.43;77.41;100803.75;6296768;28;20262;-76
2021/06/22 02:19:49;;;;;;;9.27;8.40;;;;;;;21.45;77.07;100805.09;6314710;28;20375;-75
2021/06/22 02:23:10;;;;;;;11.15;7.97;;;;;;;21.39;78.07;100794.34;6297758;28;20206;-76
2021/06/22 02:26:16;;;;;;;9.82;8.30;;;;;;;21.44;77.85;100788.75;6315113;28;20248;-75
2021/06/22 02:29:20;;;;;;;13.77;8.40;;;;;;;21.44;77.78;100799.84;6297683;28;20231;-75
2021/06/22 02:32:28;;;;;;;17.58;7.93;;;;;;;21.51;76.47;100789.25;6313988;28;20199;-76
2021/06/22 02:35:40;;;;;;;15.70;8.30;;;;;;;21.53;76.73;100787.00;6313981;28;20246;-76
2021/06/22 02:38:47;;;;;;;9.15;8.13;;;;;;;21.54;76.64;100794.22;6315383;28;20219;-76
2021/06/22 02:41:56;;;;;;;14.57;7.88;;;;;;;21.55;76.86;100790.31;6313969;28;20206;-76
2021/06/22 02:45:00;;;;;;;13.13;7.53;;;;;;;21.59;76.63;100791.41;6314446;28;20366;-76
2021/06/22 02:48:05;;;;;;;9.65;7.30;;;;;;;21.61;76.52;100795.53;6315005;28;20190;-76
2021/06/22 02:51:11;;;;;;;17.42;7.88;;;;;;;21.52;76.62;100790.91;6314483;28;20206;-76
2021/06/22 02:54:22;;;;;;;11.98;7.72;;;;;;;21.57;76.41;100800.00;6313723;28;20211;-75
2021/06/22 02:57:28;;;;;;;14.32;7.60;;;;;;;21.64;75.76;100799.69;6297161;28;20231;-76
2021/06/22 03:00:35;;;;;;;12.60;7.88;;;;;;;21.63;76.42;100792.47;6297016;28;20237;-75
2021/06/22 03:03:44;;;;;;;9.45;7.13;;;;;;;21.63;76.79;100784.13;6313506;28;20215;-75
2021/06/22 03:06:51;;;;;;;11.02;7.40;;;;;;;21.70;76.26;100787.41;6297133;28;20267;-76
2021/06/22 03:10:06;;;;;;;8.82;8.02;;;;;;;21.69;76.04;100780.22;6312648;28;20266;-76
2021/06/22 03:13:14;;;;;;;9.02;6.93;;;;;;;21.63;76.19;100781.34;6296187;28;20211;-76
2021/06/22 03:16:20;;;;;;;11.25;6.90;;;;;;;21.76;75.73;100775.13;6312759;28;20478;-76
2021/06/22 03:19:25;;;;;;;12.52;7.72;;;;;;;21.68;76.39;100762.72;6314099;28;20230;-76
2021/06/22 03:22:35;;;;;;;12.52;7.10;;;;;;;21.73;75.89;100770.16;6312029;28;20231;-76
2021/06/22 03:25:40;;;;;;;10.45;6.97;;;;;;;21.78;75.50;100767.31;6313853;28;20191;-75
2021/06/22 03:28:45;;;;;;;11.88;6.65;;;;;;;21.81;75.86;100773.13;6314083;28;20321;-75
2021/06/22 03:32:20;;;;;;;13.77;7.13;;;;;;;21.83;75.68;100770.06;6304990;28;20206;-76
2021/06/22 03:35:28;;;;;;;8.55;6.82;;;;;;;21.91;75.54;100769.44;6314021;28;20274;-76
2021/06/22 03:38:33;;;;;;;7.70;6.88;;;;;;;21.87;75.64;100764.78;6313994;28;20219;-76
2021/06/22 03:41:38;;;;;;;9.48;7.28;;;;;;;21.94;75.33;100766.09;6296464;28;20199;-76
2021/06/22 03:44:46;;;;;;;11.70;6.78;;;;;;;22.00;75.10;100761.31;6295642;28;20544;-76
2021/06/22 03:47:55;;;;;;;9.95;6.88;;;;;;;21.97;75.37;100757.19;6295252;28;20241;-76
2021/06/22 03:51:01;;;;;;;15.02;6.72;;;;;;;22.03;75.66;100742.13;6295958;28;20206;-77
2021/06/22 03:54:06;;;;;;;8.98;7.05;;;;;;;22.01;75.79;100749.09;6312021;28;20199;-75
2021/06/22 03:57:10;;;;;;;14.27;6.80;;;;;;;22.02;75.92;100740.44;6313641;28;20184;-76
2021/06/22 04:00:36;;;;;;;6.93;6.30;;;;;;;22.07;75.91;100743.16;6295713;28;20199;-76
2021/06/22 04:03:45;;;;;;;12.02;6.40;;;;;;;22.07;76.02;100743.16;6312456;28;20222;-77
2021/06/22 04:07:04;;;;;;;11.15;6.85;;;;;;;22.16;75.46;100746.13;6312326;28;20503;-75
2021/06/22 04:10:12;;;;;;;6.75;6.22;;;;;;;22.18;75.95;100746.66;6311898;28;20215;-75
2021/06/22 04:13:21;;;;;;;9.90;6.38;;;;;;;22.29;75.50;100785.13;6294738;28;20231;-76
2021/06/22 04:16:31;;;;;;;12.40;6.68;;;;;;;22.31;75.80;100769.03;6310834;28;20302;-77
2021/06/22 04:19:36;;;;;;;10.60;6.45;;;;;;;22.38;75.70;100772.25;6312734;28;20184;-76
2021/06/22 04:22:41;;;;;;;13.13;6.53;;;;;;;22.43;75.06;100761.06;6312653;28;20184;-76
2021/06/22 04:25:51;;;;;;;15.00;6.55;;;;;;;22.48;75.34;100792.69;6293725;28;20203;-76
2021/06/22 04:28:57;;;;;;;8.27;6.22;;;;;;;22.52;74.66;100794.59;6293862;28;20407;-75
2021/06/22 04:32:03;;;;;;;9.15;6.18;;;;;;;22.56;74.40;100778.16;6311397;28;20251;-76
2021/06/22 04:35:08;;;;;;;9.75;6.22;;;;;;;22.65;74.14;100785.56;6312426;28;20211;-76
2021/06/22 04:38:17;;;;;;;7.28;5.95;;;;;;;22.78;73.66;100775.66;6312853;28;20191;-76
2021/06/22 04:41:23;;;;;;;10.40;6.18;;;;;;;22.84;73.64;100780.03;6312383;28;20215;-76
2021/06/22 04:44:27;;;;;;;11.20;6.43;;;;;;;22.91;73.37;100781.31;6312255;28;20189;-76
2021/06/22 04:47:33;;;;;;;9.65;6.40;;;;;;;22.92;73.56;100776.56;6312180;28;20255;-75
2021/06/22 04:50:38;;;;;;;17.15;6.70;;;;;;;22.97;73.17;100779.28;6312360;28;20183;-76
2021/06/22 04:53:43;;;;;;;10.80;5.93;;;;;;;23.07;73.42;100790.25;6311537;28;20219;-76
2021/06/22 04:56:47;;;;;;;11.50;6.50;;;;;;;23.14;72.48;100785.13;6312330;28;20291;-76
2021/06/22 04:59:51;;;;;;;9.60;6.25;;;;;;;23.19;72.24;100787.03;6311811;28;20183;-76
2021/06/22 05:02:58;;;;;;;9.95;6.32;;;;;;;23.23;71.89;100788.91;6311921;28;20218;-75
2021/06/22 05:06:02;;;;;;;11.55;6.18;;;;;;;23.30;71.71;100775.44;6312126;28;20187;-77
2021/06/22 05:09:06;;;;;;;18.02;6.22;;;;;;;23.35;72.82;100768.94;6312036;28;20184;-76
2021/06/22 05:12:11;;;;;;;12.65;6.28;;;;;;;23.47;71.70;100770.16;6312218;28;20184;-75
2021/06/22 05:15:16;;;;;;;8.98;5.88;;;;;;;23.58;70.86;100763.28;6310886;28;20219;-76
2021/06/22 05:18:21;;;;;;;12.75;6.50;;;;;;;23.71;71.36;100760.84;6311662;28;20234;-76
2021/06/22 05:21:25;;;;;;;6.20;5.72;;;;;;;24.59;67.48;100755.78;6312220;28;20211;-76
2021/06/22 05:24:30;;;;;;;13.13;5.97;;;;;;;24.93;68.14;100757.28;6312218;28;20246;-76
2021/06/22 05:27:34;;;;;;;14.65;5.68;;;;;;;25.34;65.85;100757.97;6312000;28;20188;-76
2021/06/22 05:30:39;;;;;;;8.27;5.47;;;;;;;25.50;66.31;100760.06;6310588;28;20369;-75
2021/06/22 05:33:44;;;;;;;16.52;5.82;;;;;;;25.65;65.04;100767.25;6311719;28;20183;-76
2021/06/22 05:36:48;;;;;;;21.60;6.15;;;;;;;25.75;63.01;100767.00;6293387;28;20518;-76
2021/06/22 05:39:52;;;;;;;9.32;6.00;;;;;;;25.75;62.33;100778.16;6312219;28;20251;-76
2021/06/22 05:42:57;;;;;;;14.50;5.90;;;;;;;25.56;62.99;100785.91;6297883;28;20199;-76
2021/06/22 05:46:01;;;;;;;26.80;6.32;;;;;;;25.66;62.94;100791.25;6316052;28;20195;-76
2021/06/22 05:49:07;;;;;;;10.65;5.43;;;;;;;25.54;62.53;100788.22;6315018;28;20206;-76
2021/06/22 05:52:11;;;;;;;6.88;5.90;;;;;;;25.55;63.06;100781.50;6316108;28;20184;-75
2021/06/22 05:55:21;;;;;;;8.82;5.40;;;;;;;25.61;63.93;100771.81;6314943;28;20184;-75
2021/06/22 05:58:26;;;;;;;7.55;5.70;;;;;;;25.63;63.64;100768.72;6315549;28;20247;-76
2021/06/22 06:01:30;;;;;;;9.48;5.47;;;;;;;25.61;63.11;100774.59;6315053;28;20528;-76
2021/06/22 06:04:36;;;;;;;13.50;5.97;;;;;;;25.55;63.57;100778.69;6315557;28;20184;-75
2021/06/22 06:07:40;;;;;;;29.67;7.47;;;;;;;25.34;63.89;100778.34;6315584;28;20263;-75
2021/06/22 06:10:44;;;;;;;10.50;5.90;;;;;;;25.30;63.93;100782.06;6314402;28;20377;-75
2021/06/22 06:13:48;;;;;;;15.13;6.50;;;;;;;25.26;64.18;100781.06;6315256;28;20229;-75
2021/06/22 06:16:52;;;;;;;10.32;6.00;;;;;;;25.24;64.42;100788.94;6314532;28;20310;-76
2021/06/22 06:19:58;;;;;;;14.10;6.10;;;;;;;25.15;64.48;100782.44;6314643;28;20553;-75
2021/06/22 06:23:02;;;;;;;16.05;6.65;;;;;;;25.15;64.98;100785.22;6314326;28;20247;-75
2021/06/22 06:26:08;;;;;;;23.50;6.38;;;;;;;25.02;65.42;100774.91;6315797;28;20194;-75
2021/06/22 06:29:21;;;;;;;10.85;6.13;;;;;;;24.95;66.30;100774.53;6313994;28;20493;-76
2021/06/22 06:32:25;;;;;;;13.00;5.93;;;;;;;25.04;65.72;100781.03;6315177;28;20184;-74
2021/06/22 06:35:31;;;;;;;11.32;6.38;;;;;;;25.05;65.59;100788.25;6314262;28;20441;-75
2021/06/22 06:38:35;;;;;;;10.15;5.85;;;;;;;25.08;66.33;100796.00;6313772;28;20292;-75
2021/06/22 06:41:39;;;;;;;12.35;6.10;;;;;;;25.09;65.18;100789.28;6314818;28;20190;-76
2021/06/22 06:44:43;;;;;;;18.55;6.32;;;;;;;25.17;65.41;100799.69;6313858;28;20187;-75
2021/06/22 06:47:48;;;;;;;18.73;6.72;;;;;;;25.28;64.71;100789.94;6314452;28;20218;-75
2021/06/22 06:50:54;;;;;;;12.23;5.68;;;;;;;25.32;65.45;100802.13;6313909;28;20194;-75
2021/06/22 06:53:58;;;;;;;16.00;7.38;;;;;;;25.40;64.89;100804.16;6313574;28;20219;-75
2021/06/22 06:57:03;;;;;;;7.63;6.00;;;;;;;25.44;65.19;100796.81;6313401;28;20564;-75
2021/06/22 07:00:09;;;;;;;10.48;6.03;;;;;;;25.62;64.55;100790.25;6313383;28;20183;-75
2021/06/22 07:03:14;;;;;;;13.52;6.50;;;;;;;25.73;64.51;100797.19;6313297;28;20493;-75
2021/06/22 07:06:20;;;;;;;10.55;5.85;;;;;;;25.79;63.97;100807.13;6313410;28;20188;-75
2021/06/22 07:09:24;;;;;;;8.05;5.57;;;;;;;25.84;63.74;100804.19;6295916;28;20207;-75
2021/06/22 07:12:29;;;;;;;10.77;6.00;;;;;;;25.97;63.95;100808.88;6313064;28;20466;-75
2021/06/22 07:15:33;;;;;;;8.18;5.78;;;;;;;26.06;63.53;100815.31;6312891;28;20317;-75
2021/06/22 07:18:37;;;;;;;16.17;6.50;;;;;;;26.13;63.05;100816.88;6312708;28;20249;-75
2021/06/22 07:21:43;;;;;;;21.75;6.10;;;;;;;26.11;62.78;100815.22;6314081;28;20230;-75
2021/06/22 07:24:49;;;;;;;16.92;6.43;;;;;;;26.18;64.07;100825.94;6313593;28;20183;-74
2021/06/22 07:27:53;;;;;;;16.00;6.68;;;;;;;26.24;63.62;100812.66;6313633;28;20188;-75
2021/06/22 07:30:58;;;;;;;21.05;6.13;;;;;;;26.35;63.70;100808.41;6313757;28;20215;-75
2021/06/22 07:34:02;;;;;;;18.13;6.57;;;;;;;26.43;64.00;100810.44;6313742;28;20229;-74
2021/06/22 07:37:09;;;;;;;6.43;5.85;;;;;;;26.50;62.13;100810.81;6313344;28;20218;-75
2021/06/22 07:40:15;;;;;;;12.68;6.10;;;;;;;26.66;61.89;100809.19;6312335;28;20516;-76
2021/06/22 07:43:19;;;;;;;8.15;5.65;;;;;;;26.81;62.34;100810.75;6311938;28;20338;-75
2021/06/22 07:46:23;;;;;;;7.25;5.63;;;;;;;26.88;63.31;100817.53;6312221;28;20475;-75
2021/06/22 07:49:28;;;;;;;8.73;6.53;;;;;;;26.92;61.80;100801.72;6313033;28;20190;-76
2021/06/22 07:52:34;;;;;;;8.23;6.65;;;;;;;26.82;61.35;100807.63;6312951;28;20183;-75
2021/06/22 07:55:38;;;;;;;13.38;6.90;;;;;;;26.83;62.21;100809.28;6313350;28;20221;-75
2021/06/22 07:58:42;;;;;;;10.80;6.00;;;;;;;26.96;62.28;100813.94;6313506;28;20274;-76
2021/06/22 08:01:47;;;;;;;11.93;6.35;;;;;;;27.05;60.74;100806.34;6312990;28;20242;-76
2021/06/22 08:04:53;;;;;;;8.95;6.13;;;;;;;27.16;60.71;100812.47;6311237;28;20246;-75
2021/06/22 08:07:58;;;;;;;16.85;7.00;;;;;;;27.12;60.92;100817.06;6311699;28;20415;-76
2021/06/22 08:11:02;;;;;;;11.65;6.60;;;;;;;27.20;61.84;100808.66;6311742;28;20474;-76
2021/06/22 08:14:08;;;;;;;9.50;6.47;;;;;;;27.25;61.41;100799.28;6311494;28;20331;-76
2021/06/22 08:17:12;;;;;;;11.13;6.60;;;;;;;27.40;61.36;100800.81;6311085;28;20262;-76
2021/06/22 08:20:17;;;;;;;16.48;6.80;;;;;;;27.46;60.06;100799.47;6312003;28;20187;-76
2021/06/22 08:23:23;;;;;;;16.48;6.50;;;;;;;27.49;59.37;100782.00;6311184;28;20215;-76
2021/06/22 08:26:27;;;;;;;8.23;6.57;;;;;;;27.46;59.53;100789.09;6312084;28;20190;-76
2021/06/22 08:29:31;;;;;;;11.85;7.35;;;;;;;27.51;59.37;100794.53;6311231;28;20459;-76
2021/06/22 08:32:35;;;;;;;11.23;6.38;;;;;;;27.52;59.14;100804.59;6312320;28;20184;-76
2021/06/22 08:35:41;;;;;;;9.40;6.45;;;;;;;27.53;59.80;100791.41;6312447;28;20183;-76
2021/06/22 08:38:46;;;;;;;9.65;7.20;;;;;;;27.65;59.67;100797.97;6312311;28;20207;-76
2021/06/22 08:41:53;;;;;;;9.30;7.07;;;;;;;27.71;60.33;100818.22;6311291;28;20205;-76
2021/06/22 08:44:58;;;;;;;12.20;7.78;;;;;;;27.76;60.01;100812.47;6312257;28;20222;-76
2021/06/22 08:48:04;;;;;;;22.48;7.18;;;;;;;27.67;58.85;100828.47;6312489;28;20191;-76
2021/06/22 08:51:09;;;;;;;11.63;7.90;;;;;;;27.77;59.32;100828.13;6310708;28;20358;-76
2021/06/22 08:54:14;;;;;;;10.55;7.50;;;;;;;27.85;60.04;100827.28;6310826;28;20383;-76
2021/06/22 08:57:20;;;;;;;10.40;7.57;;;;;;;27.91;59.51;100834.38;6311364;28;20255;-76
2021/06/22 09:00:24;;;;;;;18.48;7.35;;;;;;;28.00;59.76;100843.59;6311392;28;20271;-76
2021/06/22 09:03:29;;;;;;;7.95;7.25;;;;;;;27.92;58.90;100836.00;6312011;28;20183;-76
2021/06/22 09:06:39;;;;;;;9.15;7.65;;;;;;;27.86;59.38;100848.56;6312083;28;20250;-76
2021/06/22 09:09:45;;;;;;;9.88;7.63;;;;;;;27.80;59.31;100847.09;6311153;28;20474;-76
2021/06/22 09:12:49;;;;;;;15.75;6.95;;;;;;;27.80;58.95;100847.09;6311775;28;20215;-76
2021/06/22 09:15:55;;;;;;;7.68;6.97;;;;;;;27.81;58.68;100854.34;6313137;28;20513;-75
2021/06/22 09:19:02;;;;;;;10.73;6.88;;;;;;;27.82;57.25;100858.78;6316388;28;20409;-76
2021/06/22 09:22:18;;;;;;;13.98;7.57;;;;;;;27.86;57.61;100862.59;6316943;28;20190;-75
2021/06/22 09:25:25;;;;;;;11.88;6.82;;;;;;;27.92;59.26;100869.66;6316998;28;20199;-75
2021/06/22 09:28:33;;;;;;;10.93;6.95;;;;;;;27.92;58.52;100875.25;6315549;28;20494;-76
2021/06/22 09:31:49;;;;;;;10.90;6.90;;;;;;;27.82;58.41;100881.22;6316730;28;20191;-76
2021/06/22 09:35:17;;;;;;;13.85;6.68;;;;;;;27.83;58.92;100891.28;6316407;28;20190;-76
2021/06/22 09:38:21;;;;;;;14.10;6.90;;;;;;;27.99;58.91;100875.59;6316455;28;20211;-76
2021/06/22 09:41:28;;;;;;;15.98;7.30;;;;;;;28.05;57.97;100879.91;6315133;28;20449;-76
2021/06/22 09:44:34;;;;;;;10.60;6.95;;;;;;;28.07;57.94;100871.97;6315217;28;20474;-76
2021/06/22 09:47:46;;;;;;;14.68;7.25;;;;;;;28.15;57.17;100881.53;6315453;28;20215;-76
2021/06/22 09:50:50;;;;;;;9.50;7.38;;;;;;;28.26;56.78;100880.84;6316043;28;20219;-76
2021/06/22 09:54:19;;;;;;;10.77;7.40;;;;;;;28.37;57.25;100865.31;6316246;28;20230;-76
2021/06/22 09:57:29;;;;;;;18.65;7.65;;;;;;;28.39;57.75;100871.41;6314846;28;20190;-76
2021/06/22 10:00:37;;;;;;;10.50;7.03;;;;;;;28.31;57.38;100877.88;6296655;28;20229;-76
2021/06/22 10:03:41;;;;;;;12.63;7.50;;;;;;;28.20;56.67;100882.16;6314587;28;20227;-75
2021/06/22 10:06:55;;;;;;;11.57;7.10;;;;;;;28.19;56.97;100897.38;6314280;28;20184;-75
2021/06/22 10:10:02;;;;;;;10.57;7.43;;;;;;;28.09;58.15;100908.94;6314079;28;20194;-75
2021/06/22 10:13:08;;;;;;;12.48;7.30;;;;;;;28.13;58.49;100898.69;6315032;28;20195;-76
2021/06/22 10:16:22;;;;;;;11.50;7.38;;;;;;;28.13;59.97;100893.09;6314098;28;20199;-75
2021/06/22 10:19:27;;;;;;;12.77;7.55;;;;;;;27.89;60.41;100893.56;6315101;28;20235;-76
2021/06/22 10:22:32;;;;;;;8.38;7.60;;;;;;;27.83;60.69;100891.28;6296891;28;20540;-76
2021/06/22 10:25:38;;;;;;;11.52;7.68;;;;;;;27.79;60.97;100887.47;6314135;28;20222;-78
2021/06/22 10:28:44;;;;;;;11.13;7.72;;;;;;;27.60;61.07;100884.19;6315428;28;20219;-77
2021/06/22 10:31:50;;;;;;;13.65;7.70;;;;;;;27.59;62.25;100885.34;6315238;28;20250;-76
2021/06/22 10:34:57;;;;;;;12.45;7.15;;;;;;;27.61;62.03;100886.66;6314114;28;20188;-76
2021/06/22 10:38:09;;;;;;;10.52;8.30;;;;;;;27.66;63.92;100883.69;6315125;28;20183;-76
2021/06/22 10:41:13;;;;;;;8.73;7.82;;;;;;;27.63;64.61;100894.75;6314826;28;20173;-77
2021/06/22 10:44:45;;;;;;;10.48;8.00;;;;;;;27.65;64.30;100903.66;6314858;28;20184;-76
2021/06/22 10:47:50;;;;;;;14.38;8.43;;;;;;;27.66;64.98;100899.69;6314591;28;20183;-77
2021/06/22 10:50:56;;;;;;;8.85;8.02;;;;;;;27.67;65.00;100901.34;6314301;28;20229;-76
2021/06/22 10:54:00;;;;;;;9.77;8.00;;;;;;;27.43;65.12;100900.97;6313621;28;20205;-77
2021/06/22 10:57:05;;;;;;;10.50;7.97;;;;;;;27.39;64.73;100913.97;6314864;28;20215;-76
2021/06/22 11:00:14;;;;;;;11.75;8.75;;;;;;;27.58;64.69;100903.31;6313041;28;20460;-77
2021/06/22 11:03:21;;;;;;;13.98;8.23;;;;;;;27.41;63.47;100914.50;6313383;28;20403;-78
2021/06/22 11:06:28;;;;;;;8.80;8.07;;;;;;;27.32;64.34;100922.88;6314136;28;20265;-76
2021/06/22 11:09:33;;;;;;;13.25;8.27;;;;;;;27.35;64.57;100928.63;6314026;28;20272;-76
2021/06/22 11:12:54;;;;;;;15.73;8.77;;;;;;;27.35;64.74;100934.25;6314173;28;20190;-76
2021/06/22 11:16:01;;;;;;;8.60;7.75;;;;;;;27.44;63.95;100922.25;6313348;28;20407;-77
2021/06/22 11:19:13;;;;;;;12.05;8.23;;;;;;;27.40;63.70;100918.47;6313786;28;20540;-78
2021/06/22 11:22:17;;;;;;;8.85;8.05;;;;;;;27.48;63.08;100920.47;6315268;28;20184;-76
2021/06/22 11:25:22;;;;;;;16.40;8.25;;;;;;;27.50;61.72;100918.16;6312469;28;20269;-77
2021/06/22 11:28:28;;;;;;;9.50;8.10;;;;;;;27.45;61.09;100932.31;6314518;28;20187;-76
2021/06/22 11:31:37;;;;;;;11.93;8.40;;;;;;;27.31;61.68;100927.66;6314957;28;20187;-77
2021/06/22 11:34:53;;;;;;;8.23;7.50;;;;;;;27.21;61.43;100922.34;6313844;28;20202;-76
2021/06/22 11:38:13;;;;;;;10.95;7.97;;;;;;;27.26;61.33;100927.81;6313879;28;20222;-76
2021/06/22 11:41:17;;;;;;;8.68;7.78;;;;;;;27.47;60.56;100913.19;6312708;28;20218;-76
2021/06/22 11:44:25;;;;;;;8.55;7.85;;;;;;;27.52;60.07;100924.25;6313799;28;20215;-76
2021/06/22 11:47:51;;;;;;;9.30;7.15;;;;;;;27.62;58.77;100937.94;6313759;28;20184;-76
2021/06/22 11:50:55;;;;;;;9.40;7.57;;;;;;;27.63;60.13;100928.41;6313112;28;20195;-77
2021/06/22 11:54:00;;;;;;;8.77;7.78;;;;;;;27.67;60.25;100929.38;6313407;28;20251;-76
2021/06/22 11:57:04;;;;;;;11.13;7.57;;;;;;;27.78;59.68;100939.13;6313074;28;20183;-76
2021/06/22 12:00:14;;;;;;;11.18;7.47;;;;;;;27.65;58.78;100948.50;6312104;28;20530;-76
2021/06/22 12:03:26;;;;;;;9.32;7.78;;;;;;;27.79;60.46;100943.53;6312759;28;20184;-76
2021/06/22 12:06:30;;;;;;;13.82;8.38;;;;;;;27.79;59.33;100944.38;6312827;28;20190;-76
2021/06/22 12:09:36;;;;;;;14.32;8.13;;;;;;;28.05;59.31;100943.56;6311607;28;20226;-77
2021/06/22 12:12:43;;;;;;;12.18;7.40;;;;;;;28.21;58.16;100948.34;6312504;28;20230;-77
2021/06/22 12:15:47;;;;;;;8.13;7.43;;;;;;;28.29;59.06;100958.75;6312463;28;20203;-76
2021/06/22 12:18:55;;;;;;;12.25;8.27;;;;;;;28.40;58.48;100950.81;6312083;28;20290;-76
2021/06/22 12:22:01;;;;;;;10.55;7.65;;;;;;;28.48;57.64;100950.75;6312272;28;20275;-76
2021/06/22 12:25:07;;;;;;;12.57;8.15;;;;;;;28.31;58.12;100953.63;6311539;28;20489;-77
2021/06/22 12:28:13;;;;;;;8.70;7.80;;;;;;;28.29;57.22;100955.09;6313393;28;20190;-77
2021/06/22 12:31:17;;;;;;;8.55;7.90;;;;;;;28.33;57.87;100953.28;6313196;28;20194;-76
2021/06/22 12:34:25;;;;;;;11.50;8.40;;;;;;;28.44;57.14;100944.19;6312362;28;20183;-77
2021/06/22 12:37:29;;;;;;;12.00;8.27;;;;;;;28.49;57.63;100955.22;6312418;28;20183;-76
2021/06/22 12:40:42;;;;;;;10.05;7.78;;;;;;;28.52;56.17;100954.56;6312169;28;20222;-76
2021/06/22 12:43:51;;;;;;;9.25;7.68;;;;;;;28.66;56.83;100956.38;6310747;28;20247;-75
2021/06/22 12:46:55;;;;;;;17.52;8.15;;;;;;;28.85;55.65;100956.78;6311800;28;20215;-75
2021/06/22 12:50:02;;;;;;;8.65;7.75;;;;;;;28.86;55.07;100961.25;6311085;28;20254;-75
2021/06/22 12:53:10;;;;;;;9.52;8.13;;;;;;;28.85;54.41;100959.59;6311169;28;20183;-75
2021/06/22 12:56:16;;;;;;;9.25;7.93;;;;;;;28.76;54.06;100972.88;6311819;28;20183;-75
2021/06/22 12:59:22;;;;;;;11.70;8.15;;;;;;;28.61;54.49;100970.56;6311121;28;20184;-75
2021/06/22 13:02:26;;;;;;;13.57;9.23;;;;;;;28.52;55.79;100968.59;6310503;28;20233;-75
2021/06/22 13:05:35;;;;;;;14.77;8.95;;;;;;;28.44;56.76;100975.06;6311065;28;20241;-75
2021/06/22 13:08:40;;;;;;;10.45;9.40;;;;;;;28.55;57.83;100984.78;6311573;28;20230;-75
2021/06/22 13:11:51;;;;;;;10.40;9.52;;;;;;;28.67;58.93;100983.28;6311661;28;20309;-75
2021/06/22 13:14:55;;;;;;;18.50;10.90;;;;;;;28.69;58.42;100978.16;6311569;28;20222;-75
2021/06/22 13:18:00;;;;;;;11.63;10.38;;;;;;;28.77;58.43;100977.28;6311225;28;20502;-75
2021/06/22 13:21:12;;;;;;;12.85;9.90;;;;;;;28.78;58.44;100978.97;6294662;28;20223;-76
2021/06/22 13:24:43;;;;;;;12.02;10.82;;;;;;;28.83;58.16;100973.16;6310428;28;20517;-75
2021/06/22 13:27:53;;;;;;;12.15;10.90;;;;;;;28.80;58.78;100985.06;6311531;28;20191;-75
2021/06/22 13:31:11;;;;;;;14.95;10.98;;;;;;;28.70;57.89;100979.81;6311387;28;20195;-76
2021/06/22 13:34:16;;;;;;;13.40;10.82;;;;;;;28.76;57.50;100984.09;6313404;28;20290;-76
2021/06/22 13:37:21;;;;;;;12.35;11.15;;;;;;;28.72;57.54;100983.09;6317542;28;20241;-76
2021/06/22 13:40:28;;;;;;;12.63;11.00;;;;;;;28.68;57.46;100994.19;6318122;28;20211;-76
2021/06/22 13:43:43;;;;;;;11.45;10.35;;;;;;;28.79;56.70;100989.00;6311035;28;20471;-76
2021/06/22 13:46:47;;;;;;;11.98;9.77;;;;;;;28.60;56.05;100996.97;6311074;28;20200;-76
2021/06/22 13:49:52;;;;;;;18.90;9.55;;;;;;;28.84;55.10;101002.91;6310058;28;20230;-76
2021/06/22 13:53:00;;;;;;;13.60;9.80;;;;;;;29.25;53.61;100994.63;6310410;28;20535;-76
2021/06/22 13:56:05;;;;;;;15.15;9.05;;;;;;;29.65;53.72;101007.16;6310082;28;20215;-76
2021/06/22 13:59:10;;;;;;;10.32;8.88;;;;;;;29.39;53.90;101005.66;6310456;28;20277;-76
2021/06/22 14:02:15;;;;;;;11.57;10.20;;;;;;;29.44;54.43;101011.06;6312539;28;20370;-76
2021/06/22 14:05:19;;;;;;;14.95;9.75;;;;;;;29.45;54.55;101002.31;6315217;28;20190;-76
2021/06/22 14:08:26;;;;;;;10.35;9.70;;;;;;;29.33;55.28;101013.44;6315616;28;20183;-76
2021/06/22 14:11:30;;;;;;;11.70;9.90;;;;;;;29.58;54.47;101001.22;6315818;28;20191;-75
2021/06/22 14:14:35;;;;;;;11.30;10.35;;;;;;;29.38;54.06;101002.00;6314308;28;20254;-75
2021/06/22 14:17:41;;;;;;;11.38;10.35;;;;;;;29.48;54.78;101018.50;6314198;28;20506;-75
2021/06/22 14:20:48;;;;;;;14.95;11.10;;;;;;;29.18;55.46;101042.09;6313824;28;20522;-76
2021/06/22 14:23:54;;;;;;;14.93;12.73;;;;;;;28.73;56.81;101050.16;6314511;28;20184;-76